sensor_id;sensor_type;location;lat;lon;timestamp;P1;durP1;ratioP1;P2;durP2;ratioP2
37085;SDS011;23001;45.952;12.676;2024-01-30T00:00:49;64.65;;;47.65;;
37085;SDS011;23001;45.952;12.676;2024-01-30T00:03:18;60.88;;;47.50;;
37085;SDS011;23001;45.952;12.676;2024-01-30T00:05:46;68.50;;;48.70;;
37085;SDS011;23001;45.952;12.676;2024-01-30T00:08:12;64.75;;;46.88;;
37085;SDS011;23001;45.952;12.676;2024-01-30T00:10:38;61.50;;;47.03;;
37085;SDS011;23001;45.952;12.676;2024-01-30T00:13:04;59.25;;;43.75;;
37085;SDS011;23001;45.952;12.676;2024-01-30T00:15:29;59.85;;;43.40;;
37085;SDS011;23001;45.952;12.676;2024-01-30T00:17:58;62.78;;;46.15;;
37085;SDS011;23001;45.952;12.676;2024-01-30T00:20:24;54.45;;;41.25;;
37085;SDS011;23001;45.952;12.676;2024-01-30T00:22:55;60.22;;;44.08;;
37085;SDS011;23001;45.952;12.676;2024-01-30T00:25:21;58.03;;;42.05;;
37085;SDS011;23001;45.952;12.676;2024-01-30T00:27:47;53.22;;;41.53;;
37085;SDS011;23001;45.952;12.676;2024-01-30T00:30:13;58.20;;;42.05;;
37085;SDS011;23001;45.952;12.676;2024-01-30T00:32:39;53.75;;;41.08;;
37085;SDS011;23001;45.952;12.676;2024-01-30T00:35:06;59.78;;;41.17;;
37085;SDS011;23001;45.952;12.676;2024-01-30T00:37:32;55.35;;;42.80;;
37085;SDS011;23001;45.952;12.676;2024-01-30T00:39:58;54.88;;;42.67;;
37085;SDS011;23001;45.952;12.676;2024-01-30T00:42:24;54.72;;;40.80;;
37085;SDS011;23001;45.952;12.676;2024-01-30T00:44:50;51.45;;;39.28;;
37085;SDS011;23001;45.952;12.676;2024-01-30T00:47:16;55.50;;;40.67;;
37085;SDS011;23001;45.952;12.676;2024-01-30T00:49:41;53.13;;;39.22;;
37085;SDS011;23001;45.952;12.676;2024-01-30T00:52:07;57.42;;;39.00;;
37085;SDS011;23001;45.952;12.676;2024-01-30T00:54:35;47.55;;;35.92;;
37085;SDS011;23001;45.952;12.676;2024-01-30T00:57:02;47.55;;;36.10;;
37085;SDS011;23001;45.952;12.676;2024-01-30T00:59:28;47.92;;;35.92;;
37085;SDS011;23001;45.952;12.676;2024-01-30T01:01:53;46.10;;;35.78;;
37085;SDS011;23001;45.952;12.676;2024-01-30T01:04:19;46.20;;;34.60;;
37085;SDS011;23001;45.952;12.676;2024-01-30T01:06:46;42.50;;;33.95;;
37085;SDS011;23001;45.952;12.676;2024-01-30T01:09:12;43.17;;;31.90;;
37085;SDS011;23001;45.952;12.676;2024-01-30T01:11:38;40.50;;;30.65;;
37085;SDS011;23001;45.952;12.676;2024-01-30T01:14:06;42.97;;;31.10;;
37085;SDS011;23001;45.952;12.676;2024-01-30T01:16:32;41.15;;;31.15;;
37085;SDS011;23001;45.952;12.676;2024-01-30T01:19:05;44.63;;;32.28;;
37085;SDS011;23001;45.952;12.676;2024-01-30T01:21:33;45.90;;;32.25;;
37085;SDS011;23001;45.952;12.676;2024-01-30T01:23:59;46.63;;;33.17;;
37085;SDS011;23001;45.952;12.676;2024-01-30T01:26:25;39.70;;;31.02;;
37085;SDS011;23001;45.952;12.676;2024-01-30T01:28:51;42.45;;;32.10;;
37085;SDS011;23001;45.952;12.676;2024-01-30T01:31:25;40.03;;;32.30;;
37085;SDS011;23001;45.952;12.676;2024-01-30T01:33:54;37.33;;;30.40;;
37085;SDS011;23001;45.952;12.676;2024-01-30T01:36:20;39.75;;;30.85;;
37085;SDS011;23001;45.952;12.676;2024-01-30T01:38:46;42.60;;;33.13;;
37085;SDS011;23001;45.952;12.676;2024-01-30T01:41:12;39.13;;;30.67;;
37085;SDS011;23001;45.952;12.676;2024-01-30T01:43:41;41.08;;;31.50;;
37085;SDS011;23001;45.952;12.676;2024-01-30T01:46:17;37.85;;;29.35;;
37085;SDS011;23001;45.952;12.676;2024-01-30T01:48:43;40.08;;;29.77;;
37085;SDS011;23001;45.952;12.676;2024-01-30T01:51:10;40.58;;;28.75;;
37085;SDS011;23001;45.952;12.676;2024-01-30T01:53:36;36.70;;;29.35;;
37085;SDS011;23001;45.952;12.676;2024-01-30T01:56:02;36.88;;;27.13;;
37085;SDS011;23001;45.952;12.676;2024-01-30T01:58:28;36.85;;;27.00;;
37085;SDS011;23001;45.952;12.676;2024-01-30T02:00:58;34.63;;;27.77;;
37085;SDS011;23001;45.952;12.676;2024-01-30T02:03:27;33.97;;;26.17;;
37085;SDS011;23001;45.952;12.676;2024-01-30T02:05:53;35.72;;;26.38;;
37085;SDS011;23001;45.952;12.676;2024-01-30T02:08:20;36.90;;;26.95;;
37085;SDS011;23001;45.952;12.676;2024-01-30T02:10:51;34.20;;;25.98;;
37085;SDS011;23001;45.952;12.676;2024-01-30T02:13:41;34.65;;;25.17;;
37085;SDS011;23001;45.952;12.676;2024-01-30T02:16:10;33.88;;;26.30;;
37085;SDS011;23001;45.952;12.676;2024-01-30T02:18:38;36.88;;;25.88;;
37085;SDS011;23001;45.952;12.676;2024-01-30T02:21:10;35.25;;;25.38;;
37085;SDS011;23001;45.952;12.676;2024-01-30T02:23:39;33.42;;;26.13;;
37085;SDS011;23001;45.952;12.676;2024-01-30T02:26:09;32.35;;;24.48;;
37085;SDS011;23001;45.952;12.676;2024-01-30T02:28:37;34.90;;;25.33;;
37085;SDS011;23001;45.952;12.676;2024-01-30T02:31:03;35.55;;;24.98;;
37085;SDS011;23001;45.952;12.676;2024-01-30T02:33:31;30.92;;;25.30;;
37085;SDS011;23001;45.952;12.676;2024-01-30T02:35:57;34.75;;;25.60;;
37085;SDS011;23001;45.952;12.676;2024-01-30T02:38:23;35.00;;;25.13;;
37085;SDS011;23001;45.952;12.676;2024-01-30T02:40:49;32.42;;;24.40;;
37085;SDS011;23001;45.952;12.676;2024-01-30T02:43:15;32.35;;;24.38;;
37085;SDS011;23001;45.952;12.676;2024-01-30T02:45:44;33.58;;;24.23;;
37085;SDS011;23001;45.952;12.676;2024-01-30T02:48:10;33.28;;;25.02;;
37085;SDS011;23001;45.952;12.676;2024-01-30T02:50:41;34.08;;;24.83;;
37085;SDS011;23001;45.952;12.676;2024-01-30T02:53:07;33.50;;;24.88;;
37085;SDS011;23001;45.952;12.676;2024-01-30T02:55:33;28.77;;;23.67;;
37085;SDS011;23001;45.952;12.676;2024-01-30T02:57:59;32.80;;;23.83;;
37085;SDS011;23001;45.952;12.676;2024-01-30T03:00:27;33.30;;;24.08;;
37085;SDS011;23001;45.952;12.676;2024-01-30T03:02:53;30.50;;;23.05;;
37085;SDS011;23001;45.952;12.676;2024-01-30T03:05:19;33.75;;;23.17;;
37085;SDS011;23001;45.952;12.676;2024-01-30T03:07:45;30.50;;;22.95;;
37085;SDS011;23001;45.952;12.676;2024-01-30T03:10:10;31.42;;;22.67;;
37085;SDS011;23001;45.952;12.676;2024-01-30T03:12:36;31.95;;;21.67;;
37085;SDS011;23001;45.952;12.676;2024-01-30T03:15:02;32.50;;;22.55;;
37085;SDS011;23001;45.952;12.676;2024-01-30T03:17:28;26.67;;;21.20;;
37085;SDS011;23001;45.952;12.676;2024-01-30T03:19:54;29.10;;;22.10;;
37085;SDS011;23001;45.952;12.676;2024-01-30T03:22:19;28.88;;;22.40;;
37085;SDS011;23001;45.952;12.676;2024-01-30T03:24:45;28.25;;;21.75;;
37085;SDS011;23001;45.952;12.676;2024-01-30T03:27:11;25.85;;;21.73;;
37085;SDS011;23001;45.952;12.676;2024-01-30T03:29:37;30.08;;;21.38;;
37085;SDS011;23001;45.952;12.676;2024-01-30T03:32:03;27.05;;;21.92;;
37085;SDS011;23001;45.952;12.676;2024-01-30T03:34:29;28.52;;;21.08;;
37085;SDS011;23001;45.952;12.676;2024-01-30T03:36:55;24.23;;;19.42;;
37085;SDS011;23001;45.952;12.676;2024-01-30T03:39:21;27.15;;;19.60;;
37085;SDS011;23001;45.952;12.676;2024-01-30T03:41:46;29.10;;;20.73;;
37085;SDS011;23001;45.952;12.676;2024-01-30T03:44:12;25.92;;;20.63;;
37085;SDS011;23001;45.952;12.676;2024-01-30T03:46:43;26.45;;;19.13;;
37085;SDS011;23001;45.952;12.676;2024-01-30T03:49:09;25.75;;;20.55;;
37085;SDS011;23001;45.952;12.676;2024-01-30T03:51:35;26.85;;;20.27;;
37085;SDS011;23001;45.952;12.676;2024-01-30T03:54:01;23.50;;;18.95;;
37085;SDS011;23001;45.952;12.676;2024-01-30T03:56:30;24.70;;;19.60;;
37085;SDS011;23001;45.952;12.676;2024-01-30T03:59:04;27.35;;;20.27;;
37085;SDS011;23001;45.952;12.676;2024-01-30T04:01:37;23.13;;;19.08;;
37085;SDS011;23001;45.952;12.676;2024-01-30T04:04:03;23.58;;;19.58;;
37085;SDS011;23001;45.952;12.676;2024-01-30T04:06:32;24.35;;;19.73;;
37085;SDS011;23001;45.952;12.676;2024-01-30T04:08:57;23.67;;;18.60;;
37085;SDS011;23001;45.952;12.676;2024-01-30T04:11:23;23.58;;;18.20;;
37085;SDS011;23001;45.952;12.676;2024-01-30T04:13:49;24.08;;;17.67;;
37085;SDS011;23001;45.952;12.676;2024-01-30T04:16:21;21.88;;;16.88;;
37085;SDS011;23001;45.952;12.676;2024-01-30T04:18:49;20.45;;;16.15;;
37085;SDS011;23001;45.952;12.676;2024-01-30T04:21:16;22.38;;;17.77;;
37085;SDS011;23001;45.952;12.676;2024-01-30T04:23:44;19.55;;;15.20;;
37085;SDS011;23001;45.952;12.676;2024-01-30T04:26:10;18.92;;;15.98;;
37085;SDS011;23001;45.952;12.676;2024-01-30T04:28:36;23.88;;;17.45;;
37085;SDS011;23001;45.952;12.676;2024-01-30T04:31:05;22.80;;;15.98;;
37085;SDS011;23001;45.952;12.676;2024-01-30T04:33:33;18.40;;;15.77;;
37085;SDS011;23001;45.952;12.676;2024-01-30T04:36:02;21.30;;;15.88;;
37085;SDS011;23001;45.952;12.676;2024-01-30T04:38:28;17.70;;;14.77;;
37085;SDS011;23001;45.952;12.676;2024-01-30T04:40:54;18.55;;;15.07;;
37085;SDS011;23001;45.952;12.676;2024-01-30T04:43:25;19.05;;;14.98;;
37085;SDS011;23001;45.952;12.676;2024-01-30T04:45:54;20.88;;;14.55;;
37085;SDS011;23001;45.952;12.676;2024-01-30T04:48:22;18.27;;;14.38;;
37085;SDS011;23001;45.952;12.676;2024-01-30T04:50:48;20.27;;;15.32;;
37085;SDS011;23001;45.952;12.676;2024-01-30T04:53:14;18.98;;;14.35;;
37085;SDS011;23001;45.952;12.676;2024-01-30T04:55:40;16.77;;;14.13;;
37085;SDS011;23001;45.952;12.676;2024-01-30T04:58:06;18.55;;;14.82;;
37085;SDS011;23001;45.952;12.676;2024-01-30T05:00:32;18.02;;;14.52;;
37085;SDS011;23001;45.952;12.676;2024-01-30T05:02:57;16.00;;;14.20;;
37085;SDS011;23001;45.952;12.676;2024-01-30T05:05:23;14.60;;;12.75;;
37085;SDS011;23001;45.952;12.676;2024-01-30T05:07:49;16.42;;;12.73;;
37085;SDS011;23001;45.952;12.676;2024-01-30T05:10:14;15.77;;;12.50;;
37085;SDS011;23001;45.952;12.676;2024-01-30T05:12:43;20.80;;;10.88;;
37085;SDS011;23001;45.952;12.676;2024-01-30T05:15:09;13.90;;;10.52;;
37085;SDS011;23001;45.952;12.676;2024-01-30T05:17:35;17.60;;;9.80;;
37085;SDS011;23001;45.952;12.676;2024-01-30T05:20:01;14.63;;;10.05;;
37085;SDS011;23001;45.952;12.676;2024-01-30T05:22:27;13.65;;;9.90;;
37085;SDS011;23001;45.952;12.676;2024-01-30T05:24:53;15.68;;;9.82;;
37085;SDS011;23001;45.952;12.676;2024-01-30T05:27:18;11.55;;;9.32;;
37085;SDS011;23001;45.952;12.676;2024-01-30T05:29:44;14.88;;;8.85;;
37085;SDS011;23001;45.952;12.676;2024-01-30T05:32:10;11.98;;;8.88;;
37085;SDS011;23001;45.952;12.676;2024-01-30T05:34:36;11.23;;;8.63;;
37085;SDS011;23001;45.952;12.676;2024-01-30T05:37:02;11.95;;;8.70;;
37085;SDS011;23001;45.952;12.676;2024-01-30T05:39:28;10.35;;;9.23;;
37085;SDS011;23001;45.952;12.676;2024-01-30T05:41:54;13.88;;;8.98;;
37085;SDS011;23001;45.952;12.676;2024-01-30T05:44:21;12.52;;;9.57;;
37085;SDS011;23001;45.952;12.676;2024-01-30T05:46:47;11.57;;;8.82;;
37085;SDS011;23001;45.952;12.676;2024-01-30T05:49:12;11.63;;;9.25;;
37085;SDS011;23001;45.952;12.676;2024-01-30T05:51:38;11.18;;;8.82;;
37085;SDS011;23001;45.952;12.676;2024-01-30T05:54:04;13.15;;;8.90;;
37085;SDS011;23001;45.952;12.676;2024-01-30T05:56:30;11.80;;;9.00;;
37085;SDS011;23001;45.952;12.676;2024-01-30T05:58:56;11.77;;;9.50;;
37085;SDS011;23001;45.952;12.676;2024-01-30T06:01:22;12.73;;;9.10;;
37085;SDS011;23001;45.952;12.676;2024-01-30T06:03:49;12.40;;;9.82;;
37085;SDS011;23001;45.952;12.676;2024-01-30T06:06:15;12.95;;;9.68;;
37085;SDS011;23001;45.952;12.676;2024-01-30T06:08:40;12.52;;;9.95;;
37085;SDS011;23001;45.952;12.676;2024-01-30T06:11:09;12.77;;;10.15;;
37085;SDS011;23001;45.952;12.676;2024-01-30T06:13:36;12.70;;;10.27;;
37085;SDS011;23001;45.952;12.676;2024-01-30T06:16:01;16.05;;;11.70;;
37085;SDS011;23001;45.952;12.676;2024-01-30T06:18:28;16.33;;;10.57;;
37085;SDS011;23001;45.952;12.676;2024-01-30T06:20:56;16.02;;;10.68;;
37085;SDS011;23001;45.952;12.676;2024-01-30T06:23:22;13.55;;;10.82;;
37085;SDS011;23001;45.952;12.676;2024-01-30T06:25:47;16.00;;;10.55;;
37085;SDS011;23001;45.952;12.676;2024-01-30T06:28:13;17.00;;;11.35;;
37085;SDS011;23001;45.952;12.676;2024-01-30T06:30:49;14.52;;;10.50;;
37085;SDS011;23001;45.952;12.676;2024-01-30T06:33:15;12.77;;;10.27;;
37085;SDS011;23001;45.952;12.676;2024-01-30T06:35:41;14.63;;;11.02;;
37085;SDS011;23001;45.952;12.676;2024-01-30T06:38:06;13.38;;;10.15;;
37085;SDS011;23001;45.952;12.676;2024-01-30T06:40:32;17.67;;;11.20;;
37085;SDS011;23001;45.952;12.676;2024-01-30T06:43:01;19.25;;;13.25;;
37085;SDS011;23001;45.952;12.676;2024-01-30T06:45:33;20.98;;;14.57;;
37085;SDS011;23001;45.952;12.676;2024-01-30T06:48:08;20.45;;;14.18;;
37085;SDS011;23001;45.952;12.676;2024-01-30T06:51:10;16.75;;;12.05;;
37085;SDS011;23001;45.952;12.676;2024-01-30T06:53:37;17.20;;;13.18;;
37085;SDS011;23001;45.952;12.676;2024-01-30T06:56:03;18.13;;;13.02;;
37085;SDS011;23001;45.952;12.676;2024-01-30T06:58:29;15.55;;;12.80;;
37085;SDS011;23001;45.952;12.676;2024-01-30T07:00:55;16.00;;;12.23;;
37085;SDS011;23001;45.952;12.676;2024-01-30T07:03:27;14.57;;;11.77;;
37085;SDS011;23001;45.952;12.676;2024-01-30T07:05:56;12.52;;;10.32;;
37085;SDS011;23001;45.952;12.676;2024-01-30T07:08:23;14.57;;;10.48;;
37085;SDS011;23001;45.952;12.676;2024-01-30T07:10:49;18.42;;;14.57;;
37085;SDS011;23001;45.952;12.676;2024-01-30T07:13:15;16.98;;;13.32;;
37085;SDS011;23001;45.952;12.676;2024-01-30T07:15:42;20.77;;;14.70;;
37085;SDS011;23001;45.952;12.676;2024-01-30T07:18:11;24.38;;;17.02;;
37085;SDS011;23001;45.952;12.676;2024-01-30T07:21:17;26.05;;;17.02;;
37085;SDS011;23001;45.952;12.676;2024-01-30T07:23:42;24.40;;;17.30;;
37085;SDS011;23001;45.952;12.676;2024-01-30T07:26:08;21.92;;;15.98;;
37085;SDS011;23001;45.952;12.676;2024-01-30T07:28:34;23.50;;;16.42;;
37085;SDS011;23001;45.952;12.676;2024-01-30T07:31:01;24.25;;;16.42;;
37085;SDS011;23001;45.952;12.676;2024-01-30T07:33:27;20.92;;;15.32;;
37085;SDS011;23001;45.952;12.676;2024-01-30T07:35:53;19.45;;;14.05;;
37085;SDS011;23001;45.952;12.676;2024-01-30T07:38:19;19.48;;;13.68;;
37085;SDS011;23001;45.952;12.676;2024-01-30T07:40:45;18.55;;;12.93;;
37085;SDS011;23001;45.952;12.676;2024-01-30T07:43:10;17.75;;;13.02;;
37085;SDS011;23001;45.952;12.676;2024-01-30T07:45:36;21.63;;;13.15;;
37085;SDS011;23001;45.952;12.676;2024-01-30T07:48:03;16.10;;;12.50;;
37085;SDS011;23001;45.952;12.676;2024-01-30T07:50:32;17.70;;;13.55;;
37085;SDS011;23001;45.952;12.676;2024-01-30T07:52:59;19.45;;;13.65;;
37085;SDS011;23001;45.952;12.676;2024-01-30T07:55:25;19.08;;;13.13;;
37085;SDS011;23001;45.952;12.676;2024-01-30T07:57:54;18.20;;;13.10;;
37085;SDS011;23001;45.952;12.676;2024-01-30T08:00:29;17.00;;;12.80;;
37085;SDS011;23001;45.952;12.676;2024-01-30T08:02:55;18.38;;;12.77;;
37085;SDS011;23001;45.952;12.676;2024-01-30T08:05:21;16.60;;;13.32;;
37085;SDS011;23001;45.952;12.676;2024-01-30T08:07:48;17.33;;;12.68;;
37085;SDS011;23001;45.952;12.676;2024-01-30T08:10:15;18.67;;;13.77;;
37085;SDS011;23001;45.952;12.676;2024-01-30T08:12:41;16.75;;;13.30;;
37085;SDS011;23001;45.952;12.676;2024-01-30T08:15:06;19.80;;;14.77;;
37085;SDS011;23001;45.952;12.676;2024-01-30T08:17:41;16.85;;;13.88;;
37085;SDS011;23001;45.952;12.676;2024-01-30T08:20:10;17.83;;;13.90;;
37085;SDS011;23001;45.952;12.676;2024-01-30T08:22:40;24.05;;;14.93;;
37085;SDS011;23001;45.952;12.676;2024-01-30T08:25:06;17.77;;;14.35;;
37085;SDS011;23001;45.952;12.676;2024-01-30T08:27:47;24.58;;;16.63;;
37085;SDS011;23001;45.952;12.676;2024-01-30T08:30:22;18.83;;;14.70;;
37085;SDS011;23001;45.952;12.676;2024-01-30T08:33:07;21.58;;;16.30;;
37085;SDS011;23001;45.952;12.676;2024-01-30T08:35:39;20.88;;;15.25;;
37085;SDS011;23001;45.952;12.676;2024-01-30T08:38:05;21.02;;;16.08;;
37085;SDS011;23001;45.952;12.676;2024-01-30T08:40:39;20.15;;;16.08;;
37085;SDS011;23001;45.952;12.676;2024-01-30T08:43:09;23.02;;;17.10;;
37085;SDS011;23001;45.952;12.676;2024-01-30T08:45:41;18.98;;;15.50;;
37085;SDS011;23001;45.952;12.676;2024-01-30T08:48:07;25.15;;;18.33;;
37085;SDS011;23001;45.952;12.676;2024-01-30T08:50:36;25.30;;;18.23;;
37085;SDS011;23001;45.952;12.676;2024-01-30T08:53:02;25.33;;;16.95;;
37085;SDS011;23001;45.952;12.676;2024-01-30T08:55:28;21.05;;;17.88;;
37085;SDS011;23001;45.952;12.676;2024-01-30T08:57:57;23.63;;;17.10;;
37085;SDS011;23001;45.952;12.676;2024-01-30T09:00:23;29.30;;;17.10;;
37085;SDS011;23001;45.952;12.676;2024-01-30T09:02:49;18.52;;;14.77;;
37085;SDS011;23001;45.952;12.676;2024-01-30T09:05:15;18.23;;;13.80;;
37085;SDS011;23001;45.952;12.676;2024-01-30T09:07:40;17.77;;;13.55;;
37085;SDS011;23001;45.952;12.676;2024-01-30T09:10:06;20.13;;;14.27;;
37085;SDS011;23001;45.952;12.676;2024-01-30T09:12:32;15.93;;;12.35;;
37085;SDS011;23001;45.952;12.676;2024-01-30T09:14:58;16.08;;;12.68;;
37085;SDS011;23001;45.952;12.676;2024-01-30T09:17:24;16.02;;;12.38;;
37085;SDS011;23001;45.952;12.676;2024-01-30T09:19:50;16.75;;;12.73;;
37085;SDS011;23001;45.952;12.676;2024-01-30T09:22:16;19.40;;;14.50;;
37085;SDS011;23001;45.952;12.676;2024-01-30T09:24:42;20.55;;;14.52;;
37085;SDS011;23001;45.952;12.676;2024-01-30T09:27:07;21.33;;;16.00;;
37085;SDS011;23001;45.952;12.676;2024-01-30T09:29:33;21.08;;;15.52;;
37085;SDS011;23001;45.952;12.676;2024-01-30T09:32:01;18.15;;;14.38;;
37085;SDS011;23001;45.952;12.676;2024-01-30T09:34:27;19.77;;;15.40;;
37085;SDS011;23001;45.952;12.676;2024-01-30T09:36:52;20.48;;;15.98;;
37085;SDS011;23001;45.952;12.676;2024-01-30T09:39:18;19.23;;;15.32;;
37085;SDS011;23001;45.952;12.676;2024-01-30T09:41:48;16.95;;;14.88;;
37085;SDS011;23001;45.952;12.676;2024-01-30T09:44:18;19.38;;;15.07;;
37085;SDS011;23001;45.952;12.676;2024-01-30T09:46:50;22.63;;;15.40;;
37085;SDS011;23001;45.952;12.676;2024-01-30T09:49:16;19.77;;;15.13;;
37085;SDS011;23001;45.952;12.676;2024-01-30T09:51:44;22.83;;;14.50;;
37085;SDS011;23001;45.952;12.676;2024-01-30T09:54:10;23.63;;;16.05;;
37085;SDS011;23001;45.952;12.676;2024-01-30T09:56:39;22.45;;;16.48;;
37085;SDS011;23001;45.952;12.676;2024-01-30T09:59:05;22.80;;;14.98;;
37085;SDS011;23001;45.952;12.676;2024-01-30T10:01:30;20.92;;;14.80;;
37085;SDS011;23001;45.952;12.676;2024-01-30T10:03:59;22.40;;;17.98;;
37085;SDS011;23001;45.952;12.676;2024-01-30T10:06:25;20.27;;;16.60;;
37085;SDS011;23001;45.952;12.676;2024-01-30T10:08:52;24.13;;;17.02;;
37085;SDS011;23001;45.952;12.676;2024-01-30T10:11:18;31.30;;;18.05;;
37085;SDS011;23001;45.952;12.676;2024-01-30T10:13:44;23.17;;;17.08;;
37085;SDS011;23001;45.952;12.676;2024-01-30T10:16:09;25.25;;;17.33;;
37085;SDS011;23001;45.952;12.676;2024-01-30T10:18:35;21.33;;;15.88;;
37085;SDS011;23001;45.952;12.676;2024-01-30T10:21:01;24.38;;;17.52;;
37085;SDS011;23001;45.952;12.676;2024-01-30T10:23:28;23.80;;;15.50;;
37085;SDS011;23001;45.952;12.676;2024-01-30T10:25:54;24.90;;;17.45;;
37085;SDS011;23001;45.952;12.676;2024-01-30T10:28:20;22.63;;;15.75;;
37085;SDS011;23001;45.952;12.676;2024-01-30T10:30:46;24.73;;;15.60;;
37085;SDS011;23001;45.952;12.676;2024-01-30T10:33:21;23.15;;;15.23;;
37085;SDS011;23001;45.952;12.676;2024-01-30T10:35:47;24.75;;;15.77;;
37085;SDS011;23001;45.952;12.676;2024-01-30T10:38:15;21.25;;;16.60;;
37085;SDS011;23001;45.952;12.676;2024-01-30T10:40:43;21.48;;;16.27;;
37085;SDS011;23001;45.952;12.676;2024-01-30T10:43:11;22.77;;;17.45;;
37085;SDS011;23001;45.952;12.676;2024-01-30T10:45:42;21.52;;;15.48;;
37085;SDS011;23001;45.952;12.676;2024-01-30T10:48:12;22.40;;;15.85;;
37085;SDS011;23001;45.952;12.676;2024-01-30T10:50:39;20.63;;;16.70;;
37085;SDS011;23001;45.952;12.676;2024-01-30T10:53:07;23.55;;;16.42;;
37085;SDS011;23001;45.952;12.676;2024-01-30T10:55:34;22.45;;;14.27;;
37085;SDS011;23001;45.952;12.676;2024-01-30T10:58:00;22.67;;;16.10;;
37085;SDS011;23001;45.952;12.676;2024-01-30T11:00:27;21.42;;;15.75;;
37085;SDS011;23001;45.952;12.676;2024-01-30T11:02:53;28.45;;;21.02;;
37085;SDS011;23001;45.952;12.676;2024-01-30T11:05:26;19.63;;;15.27;;
37085;SDS011;23001;45.952;12.676;2024-01-30T11:07:53;18.45;;;14.57;;
37085;SDS011;23001;45.952;12.676;2024-01-30T11:10:18;21.38;;;16.02;;
37085;SDS011;23001;45.952;12.676;2024-01-30T11:12:45;22.35;;;15.18;;
37085;SDS011;23001;45.952;12.676;2024-01-30T11:15:15;20.05;;;14.55;;
37085;SDS011;23001;45.952;12.676;2024-01-30T11:20:22;18.90;;;12.75;;
37085;SDS011;23001;45.952;12.676;2024-01-30T11:22:49;20.85;;;13.15;;
37085;SDS011;23001;45.952;12.676;2024-01-30T11:25:17;18.95;;;12.93;;
37085;SDS011;23001;45.952;12.676;2024-01-30T11:27:45;18.52;;;13.18;;
37085;SDS011;23001;45.952;12.676;2024-01-30T11:30:32;19.60;;;13.60;;
37085;SDS011;23001;45.952;12.676;2024-01-30T11:33:13;16.25;;;13.25;;
37085;SDS011;23001;45.952;12.676;2024-01-30T11:35:43;18.75;;;13.25;;
37085;SDS011;23001;45.952;12.676;2024-01-30T11:38:10;16.08;;;12.82;;
37085;SDS011;23001;45.952;12.676;2024-01-30T11:40:38;19.75;;;15.02;;
37085;SDS011;23001;45.952;12.676;2024-01-30T11:43:06;24.90;;;15.93;;
37085;SDS011;23001;45.952;12.676;2024-01-30T11:45:33;19.77;;;15.55;;
37085;SDS011;23001;45.952;12.676;2024-01-30T11:47:59;22.48;;;16.67;;
37085;SDS011;23001;45.952;12.676;2024-01-30T11:50:28;20.80;;;17.33;;
37085;SDS011;23001;45.952;12.676;2024-01-30T11:52:58;24.10;;;16.70;;
37085;SDS011;23001;45.952;12.676;2024-01-30T11:55:24;20.33;;;16.13;;
37085;SDS011;23001;45.952;12.676;2024-01-30T11:57:50;20.42;;;16.45;;
37085;SDS011;23001;45.952;12.676;2024-01-30T12:00:19;19.73;;;14.88;;
37085;SDS011;23001;45.952;12.676;2024-01-30T12:02:49;20.55;;;15.57;;
37085;SDS011;23001;45.952;12.676;2024-01-30T12:05:15;22.50;;;15.05;;
37085;SDS011;23001;45.952;12.676;2024-01-30T12:07:44;49.95;;;35.22;;
37085;SDS011;23001;45.952;12.676;2024-01-30T12:10:11;23.33;;;18.17;;
37085;SDS011;23001;45.952;12.676;2024-01-30T12:12:39;25.50;;;19.02;;
37085;SDS011;23001;45.952;12.676;2024-01-30T12:15:06;22.92;;;17.65;;
37085;SDS011;23001;45.952;12.676;2024-01-30T12:17:33;25.98;;;16.50;;
37085;SDS011;23001;45.952;12.676;2024-01-30T12:20:09;21.02;;;15.48;;
37085;SDS011;23001;45.952;12.676;2024-01-30T12:22:43;19.50;;;14.95;;
37085;SDS011;23001;45.952;12.676;2024-01-30T12:27:41;19.17;;;13.77;;
37085;SDS011;23001;45.952;12.676;2024-01-30T12:30:09;19.20;;;12.90;;
37085;SDS011;23001;45.952;12.676;2024-01-30T12:32:38;17.25;;;12.65;;
37085;SDS011;23001;45.952;12.676;2024-01-30T12:35:12;16.55;;;12.02;;
37085;SDS011;23001;45.952;12.676;2024-01-30T12:37:39;18.73;;;12.18;;
37085;SDS011;23001;45.952;12.676;2024-01-30T12:40:07;14.48;;;10.43;;
37085;SDS011;23001;45.952;12.676;2024-01-30T12:42:34;15.05;;;11.15;;
37085;SDS011;23001;45.952;12.676;2024-01-30T12:45:04;14.38;;;10.80;;
37085;SDS011;23001;45.952;12.676;2024-01-30T12:47:30;16.17;;;12.85;;
37085;SDS011;23001;45.952;12.676;2024-01-30T12:49:57;17.48;;;11.98;;
37085;SDS011;23001;45.952;12.676;2024-01-30T12:52:23;16.92;;;13.13;;
37085;SDS011;23001;45.952;12.676;2024-01-30T12:54:49;16.45;;;12.32;;
37085;SDS011;23001;45.952;12.676;2024-01-30T12:57:15;18.13;;;12.23;;
37085;SDS011;23001;45.952;12.676;2024-01-30T12:59:42;15.40;;;12.10;;
37085;SDS011;23001;45.952;12.676;2024-01-30T13:02:08;19.27;;;12.13;;
37085;SDS011;23001;45.952;12.676;2024-01-30T13:04:37;15.27;;;11.30;;
37085;SDS011;23001;45.952;12.676;2024-01-30T13:07:03;16.45;;;10.38;;
37085;SDS011;23001;45.952;12.676;2024-01-30T13:09:31;14.20;;;10.73;;
37085;SDS011;23001;45.952;12.676;2024-01-30T13:11:58;13.93;;;11.35;;
37085;SDS011;23001;45.952;12.676;2024-01-30T13:14:25;14.48;;;10.88;;
37085;SDS011;23001;45.952;12.676;2024-01-30T13:16:51;17.52;;;12.02;;
37085;SDS011;23001;45.952;12.676;2024-01-30T13:19:17;16.08;;;12.30;;
37085;SDS011;23001;45.952;12.676;2024-01-30T13:21:43;16.98;;;12.27;;
37085;SDS011;23001;45.952;12.676;2024-01-30T13:24:09;16.92;;;11.80;;
37085;SDS011;23001;45.952;12.676;2024-01-30T13:26:34;16.70;;;12.00;;
37085;SDS011;23001;45.952;12.676;2024-01-30T13:29:00;18.27;;;12.98;;
37085;SDS011;23001;45.952;12.676;2024-01-30T13:31:27;14.60;;;10.93;;
37085;SDS011;23001;45.952;12.676;2024-01-30T13:33:56;13.63;;;11.02;;
37085;SDS011;23001;45.952;12.676;2024-01-30T13:36:21;15.57;;;11.43;;
37085;SDS011;23001;45.952;12.676;2024-01-30T13:38:47;16.08;;;11.27;;
37085;SDS011;23001;45.952;12.676;2024-01-30T13:41:13;16.00;;;11.65;;
37085;SDS011;23001;45.952;12.676;2024-01-30T13:43:39;16.45;;;11.60;;
37085;SDS011;23001;45.952;12.676;2024-01-30T13:46:05;16.80;;;11.45;;
37085;SDS011;23001;45.952;12.676;2024-01-30T13:48:31;18.52;;;12.25;;
37085;SDS011;23001;45.952;12.676;2024-01-30T13:50:57;16.77;;;11.70;;
37085;SDS011;23001;45.952;12.676;2024-01-30T13:53:23;17.75;;;12.32;;
37085;SDS011;23001;45.952;12.676;2024-01-30T13:55:49;13.77;;;10.95;;
37085;SDS011;23001;45.952;12.676;2024-01-30T13:58:15;15.65;;;11.32;;
37085;SDS011;23001;45.952;12.676;2024-01-30T14:00:41;16.63;;;11.85;;
37085;SDS011;23001;45.952;12.676;2024-01-30T14:03:07;14.90;;;11.57;;
37085;SDS011;23001;45.952;12.676;2024-01-30T14:05:33;17.33;;;11.98;;
37085;SDS011;23001;45.952;12.676;2024-01-30T14:07:59;15.93;;;11.93;;
37085;SDS011;23001;45.952;12.676;2024-01-30T14:10:25;15.65;;;11.10;;
37085;SDS011;23001;45.952;12.676;2024-01-30T14:12:51;18.20;;;12.20;;
37085;SDS011;23001;45.952;12.676;2024-01-30T14:15:17;18.02;;;12.18;;